Time;durP1;ratioP1;P1;durP2;ratioP2;P2;SDS_P1;SDS_P2;PMS_P1;PMS_P2;Temp;Humidity;BMP_temperature;BMP_pressure;BME280_temperature;BME280_humidity;BME280_pressure;Samples;Min_cycle;Max_cycle;Signal;HPM_P1;HPM_P2
2021/09/19 00:01:54;;;;;;;15.37;8.77;;;15.80;99.90;;;;;;4954323;29;20234;-72
2021/09/19 00:04:21;;;;;;;16.57;8.90;;;15.70;99.90;;;;;;4954409;29;20216;-73
2021/09/19 00:06:48;;;;;;;17.83;8.87;;;15.70;99.90;;;;;;4954745;29;20208;-72
2021/09/19 00:09:14;;;;;;;16.07;8.50;;;15.70;99.90;;;;;;4954593;29;20208;-72
2021/09/19 00:11:43;;;;;;;13.57;8.43;;;15.60;99.90;;;;;;4954388;29;20242;-72
2021/09/19 00:14:10;;;;;;;13.77;8.53;;;15.50;99.90;;;;;;4954690;29;20299;-73
2021/09/19 00:16:38;;;;;;;13.80;8.27;;;15.50;99.90;;;;;;4956305;28;20234;-72
2021/09/19 00:19:05;;;;;;;13.60;8.27;;;15.50;99.90;;;;;;4958613;29;20232;-72
2021/09/19 00:21:31;;;;;;;13.00;7.87;;;15.60;99.90;;;;;;4958308;29;20312;-72
2021/09/19 00:23:58;;;;;;;14.80;8.03;;;15.50;99.90;;;;;;4958223;29;20207;-72
2021/09/19 00:26:25;;;;;;;13.40;8.77;;;15.50;99.90;;;;;;4958048;29;20226;-72
2021/09/19 00:28:53;;;;;;;14.33;8.07;;;15.60;99.90;;;;;;4958234;29;20216;-73
2021/09/19 00:31:20;;;;;;;15.03;8.50;;;15.60;99.90;;;;;;4958282;29;20232;-72
2021/09/19 00:33:47;;;;;;;13.13;8.47;;;15.60;99.90;;;;;;4958450;29;20215;-72
2021/09/19 00:36:13;;;;;;;13.63;8.50;;;15.60;99.90;;;;;;4958158;29;20208;-72
2021/09/19 00:38:40;;;;;;;14.30;8.50;;;15.70;99.90;;;;;;4958100;29;20232;-72
2021/09/19 00:41:07;;;;;;;14.40;8.33;;;15.70;99.90;;;;;;4958124;29;20727;-72
2021/09/19 00:43:34;;;;;;;13.03;8.20;;;15.70;99.90;;;;;;4957802;29;20204;-72
2021/09/19 00:46:02;;;;;;;12.13;7.50;;;15.80;99.90;;;;;;4957862;29;20611;-72
2021/09/19 00:48:29;;;;;;;13.20;8.77;;;15.80;99.90;;;;;;4957957;29;20214;-72
2021/09/19 00:50:56;;;;;;;16.37;8.43;;;15.90;99.90;;;;;;4957596;29;20276;-72
2021/09/19 00:53:23;;;;;;;13.70;8.03;;;15.70;99.90;;;;;;4958211;29;20209;-72
2021/09/19 00:55:51;;;;;;;14.77;8.10;;;15.60;99.90;;;;;;4957926;29;20226;-72
2021/09/19 00:58:19;;;;;;;15.13;8.43;;;15.60;99.90;;;;;;4957686;29;20231;-72
2021/09/19 01:00:49;;;;;;;12.37;7.70;;;15.60;99.90;;;;;;4958216;29;20236;-72
2021/09/19 01:03:17;;;;;;;13.30;7.93;;;15.60;99.90;;;;;;4957739;29;20212;-72
2021/09/19 01:05:45;;;;;;;14.83;8.33;;;15.60;99.90;;;;;;4957422;29;20223;-72
2021/09/19 01:08:13;;;;;;;14.63;7.93;;;15.50;99.90;;;;;;4957526;29;20222;-73
2021/09/19 01:10:41;;;;;;;13.97;7.93;;;15.60;99.90;;;;;;4957708;29;20215;-72
2021/09/19 01:13:08;;;;;;;13.30;8.00;;;15.60;99.90;;;;;;4957765;29;20216;-73
2021/09/19 01:15:35;;;;;;;12.97;7.50;;;15.60;99.90;;;;;;4957642;29;20208;-72
2021/09/19 01:18:03;;;;;;;15.47;7.40;;;15.70;99.90;;;;;;4957325;29;20240;-72
2021/09/19 01:20:33;;;;;;;11.10;7.47;;;15.80;99.90;;;;;;4957185;29;20239;-72
2021/09/19 01:23:02;;;;;;;13.40;7.33;;;15.80;99.90;;;;;;4957405;29;20219;-72
2021/09/19 01:25:31;;;;;;;12.83;8.17;;;15.80;99.90;;;;;;4957226;29;20212;-72
2021/09/19 01:27:58;;;;;;;11.30;7.20;;;15.70;99.90;;;;;;4956582;28;20208;-72
2021/09/19 01:30:25;;;;;;;11.40;7.20;;;15.60;99.90;;;;;;4957391;29;20208;-72
2021/09/19 01:32:52;;;;;;;13.37;8.23;;;15.70;99.90;;;;;;4956985;29;20210;-72
2021/09/19 01:35:19;;;;;;;13.57;8.00;;;15.60;99.90;;;;;;4957165;29;20218;-73
2021/09/19 01:37:46;;;;;;;14.00;8.17;;;15.60;99.90;;;;;;4956900;29;20212;-72
2021/09/19 01:40:13;;;;;;;14.20;7.97;;;15.60;99.90;;;;;;4957109;29;20212;-72
2021/09/19 01:42:42;;;;;;;12.47;8.07;;;15.70;99.90;;;;;;4957088;29;20228;-73
2021/09/19 01:45:10;;;;;;;13.30;7.37;;;15.70;99.90;;;;;;4957019;29;20208;-72
2021/09/19 01:47:37;;;;;;;12.57;7.63;;;15.70;99.90;;;;;;4957011;29;20211;-71
2021/09/19 01:50:05;;;;;;;11.83;7.57;;;15.70;99.90;;;;;;4956679;29;20224;-72
2021/09/19 01:52:32;;;;;;;16.03;7.73;;;15.60;99.90;;;;;;4956492;29;20231;-72
2021/09/19 01:54:59;;;;;;;12.73;7.57;;;15.70;99.90;;;;;;4956856;29;20211;-72
2021/09/19 01:57:26;;;;;;;11.47;7.17;;;15.40;99.90;;;;;;4956844;29;20223;-72
2021/09/19 01:59:57;;;;;;;12.23;6.90;;;15.40;99.90;;;;;;4957042;29;20242;-72
2021/09/19 02:02:24;;;;;;;12.77;7.27;;;15.50;99.90;;;;;;4956589;29;20239;-72
2021/09/19 02:04:52;;;;;;;10.63;6.53;;;15.60;99.90;;;;;;4957077;29;20231;-72
2021/09/19 02:07:19;;;;;;;11.53;7.37;;;15.70;99.90;;;;;;4956383;29;20215;-72
2021/09/19 02:09:45;;;;;;;15.90;7.27;;;15.70;99.90;;;;;;4956485;29;20659;-72
2021/09/19 02:12:14;;;;;;;13.67;8.00;;;15.70;99.90;;;;;;4956572;29;20228;-72
2021/09/19 02:14:42;;;;;;;12.87;7.07;;;15.70;99.90;;;;;;4956314;29;20211;-72
2021/09/19 02:17:10;;;;;;;12.20;7.30;;;15.60;99.90;;;;;;4956260;29;20600;-72
2021/09/19 02:19:37;;;;;;;12.53;7.37;;;15.60;99.90;;;;;;4955928;29;20240;-72
2021/09/19 02:22:06;;;;;;;11.47;7.17;;;15.50;99.90;;;;;;4956254;29;20223;-72
2021/09/19 02:24:33;;;;;;;11.30;7.30;;;15.60;99.90;;;;;;4956352;29;20208;-72
2021/09/19 02:26:59;;;;;;;11.43;6.43;;;15.50;99.90;;;;;;4956001;29;20222;-72
2021/09/19 02:29:26;;;;;;;13.40;7.70;;;15.50;99.90;;;;;;4956598;29;20204;-72
2021/09/19 02:31:53;;;;;;;11.93;7.63;;;15.60;99.90;;;;;;4955789;29;20710;-72
2021/09/19 02:34:21;;;;;;;14.03;8.00;;;15.40;99.90;;;;;;4955981;29;20219;-72
2021/09/19 02:36:48;;;;;;;14.10;7.87;;;15.40;99.90;;;;;;4955794;29;20208;-73
2021/09/19 02:39:15;;;;;;;13.60;7.87;;;15.50;99.90;;;;;;4955773;28;20238;-72
2021/09/19 02:41:42;;;;;;;13.33;7.93;;;15.50;99.90;;;;;;4956160;29;20231;-72
2021/09/19 02:44:09;;;;;;;10.93;6.87;;;15.60;99.90;;;;;;4955952;29;20212;-72
2021/09/19 02:46:36;;;;;;;12.60;7.70;;;15.60;99.90;;;;;;4955810;29;20290;-72
2021/09/19 02:49:03;;;;;;;12.23;7.00;;;15.70;99.90;;;;;;4955996;29;20216;-72
2021/09/19 02:51:31;;;;;;;12.80;7.30;;;15.60;99.90;;;;;;4955459;29;20234;-72
2021/09/19 02:53:57;;;;;;;12.43;7.00;;;15.60;99.90;;;;;;4955846;29;20208;-72
2021/09/19 02:56:24;;;;;;;11.37;6.60;;;15.70;99.90;;;;;;4955718;29;20214;-72
2021/09/19 02:58:51;;;;;;;11.80;7.40;;;15.70;99.90;;;;;;4955599;29;20240;-72
2021/09/19 03:01:18;;;;;;;13.17;7.83;;;15.70;99.90;;;;;;4955408;29;20238;-72
2021/09/19 03:03:45;;;;;;;11.50;7.07;;;15.60;99.90;;;;;;4955484;29;20222;-73
2021/09/19 03:06:11;;;;;;;11.67;7.53;;;15.50;99.90;;;;;;4955446;29;20208;-72
2021/09/19 03:08:39;;;;;;;11.47;7.60;;;15.50;99.90;;;;;;4955634;29;20212;-72
2021/09/19 03:11:06;;;;;;;11.43;7.27;;;15.40;99.90;;;;;;4955378;29;20714;-73
2021/09/19 03:13:33;;;;;;;12.40;7.37;;;15.40;99.90;;;;;;4955266;29;20212;-72
2021/09/19 03:16:00;;;;;;;12.50;7.10;;;15.40;99.90;;;;;;4955535;29;20216;-72
2021/09/19 03:18:27;;;;;;;13.97;7.63;;;15.40;99.90;;;;;;4955380;29;20204;-72
2021/09/19 03:20:53;;;;;;;14.40;7.57;;;15.40;99.90;;;;;;4955117;29;20230;-72
2021/09/19 03:23:20;;;;;;;14.93;7.33;;;15.30;99.90;;;;;;4955537;29;20212;-73
2021/09/19 03:25:48;;;;;;;10.33;6.73;;;15.30;99.90;;;;;;4955186;29;20659;-73
2021/09/19 03:28:15;;;;;;;14.97;7.63;;;15.30;99.90;;;;;;4955013;29;20211;-72
2021/09/19 03:30:42;;;;;;;11.93;7.27;;;15.40;99.90;;;;;;4955209;29;20218;-72
2021/09/19 03:33:09;;;;;;;12.63;7.60;;;15.30;99.90;;;;;;4955359;29;20230;-72
2021/09/19 03:35:36;;;;;;;10.13;6.67;;;15.30;99.90;;;;;;4954988;29;20630;-73
2021/09/19 03:38:03;;;;;;;10.53;7.03;;;15.20;99.90;;;;;;4955074;29;20678;-72
2021/09/19 03:40:29;;;;;;;13.00;7.40;;;15.10;99.90;;;;;;4954662;29;20711;-72
2021/09/19 03:42:58;;;;;;;11.93;7.10;;;15.10;99.90;;;;;;4954847;29;20571;-72
2021/09/19 03:45:28;;;;;;;11.13;7.17;;;15.10;99.90;;;;;;4954876;29;20219;-72
2021/09/19 03:47:57;;;;;;;13.57;7.13;;;15.10;99.90;;;;;;4955152;29;20215;-73
2021/09/19 03:50:24;;;;;;;14.80;7.67;;;15.00;99.90;;;;;;4954494;29;20207;-72
2021/09/19 03:52:50;;;;;;;11.90;6.90;;;14.90;99.90;;;;;;4954655;29;20228;-73
2021/09/19 03:55:17;;;;;;;12.77;7.93;;;14.90;99.90;;;;;;4954762;29;20671;-73
2021/09/19 03:57:44;;;;;;;13.60;7.47;;;14.90;99.90;;;;;;4954815;29;20216;-73
2021/09/19 04:00:13;;;;;;;11.27;6.87;;;14.90;99.90;;;;;;4954980;29;20238;-73
2021/09/19 04:02:40;;;;;;;15.60;8.13;;;15.00;99.90;;;;;;4954863;29;20228;-72
2021/09/19 04:05:08;;;;;;;11.87;7.03;;;15.00;99.90;;;;;;4954748;29;20303;-72
2021/09/19 04:07:35;;;;;;;12.03;7.37;;;14.90;99.90;;;;;;4954717;29;20604;-72
2021/09/19 04:10:04;;;;;;;13.70;8.00;;;14.90;99.90;;;;;;4954503;29;20223;-73
2021/09/19 04:12:30;;;;;;;11.07;6.97;;;14.80;99.90;;;;;;4954835;29;20717;-73
2021/09/19 04:14:57;;;;;;;12.87;7.30;;;14.80;99.90;;;;;;4954725;29;20226;-72
2021/09/19 04:17:25;;;;;;;10.90;6.80;;;14.70;99.90;;;;;;4954815;29;20214;-73
2021/09/19 04:19:52;;;;;;;12.17;7.30;;;14.70;99.90;;;;;;4954652;29;20244;-72
2021/09/19 04:22:20;;;;;;;11.73;7.50;;;14.70;99.90;;;;;;4954220;29;20227;-72
2021/09/19 04:24:47;;;;;;;12.33;7.40;;;14.60;99.90;;;;;;4954556;29;20230;-72
2021/09/19 04:27:13;;;;;;;12.60;7.70;;;14.60;99.90;;;;;;4954698;29;20212;-72
2021/09/19 04:29:40;;;;;;;12.27;7.73;;;14.60;99.90;;;;;;4954496;29;20686;-72
2021/09/19 04:32:07;;;;;;;11.63;7.17;;;14.60;99.90;;;;;;4954564;29;20250;-72
2021/09/19 04:34:36;;;;;;;12.83;8.03;;;14.70;99.90;;;;;;4954392;29;20208;-72
2021/09/19 04:37:03;;;;;;;13.30;7.80;;;14.60;99.90;;;;;;4954450;29;20682;-72
2021/09/19 04:39:29;;;;;;;12.27;7.43;;;14.60;99.90;;;;;;4954398;29;20215;-72
2021/09/19 04:41:56;;;;;;;11.90;6.90;;;14.60;99.90;;;;;;4954321;29;20232;-72
2021/09/19 04:44:23;;;;;;;11.03;6.63;;;14.60;99.90;;;;;;4954309;29;20204;-72
2021/09/19 04:46:50;;;;;;;14.47;7.90;;;14.50;99.90;;;;;;4954435;29;20214;-72
2021/09/19 04:49:16;;;;;;;13.43;7.90;;;14.50;99.90;;;;;;4954348;29;20595;-72
2021/09/19 04:51:45;;;;;;;14.07;7.60;;;14.50;99.90;;;;;;4954011;29;20228;-72
2021/09/19 04:54:11;;;;;;;13.23;7.60;;;14.50;99.90;;;;;;4954353;29;20204;-72
2021/09/19 04:56:38;;;;;;;14.30;8.27;;;14.40;99.90;;;;;;4954118;29;20222;-72
2021/09/19 04:59:05;;;;;;;12.17;7.30;;;14.40;99.90;;;;;;4954557;29;20575;-72
2021/09/19 05:01:32;;;;;;;12.60;7.37;;;14.50;99.90;;;;;;4954417;29;20246;-72
2021/09/19 05:03:59;;;;;;;13.97;7.40;;;14.40;99.90;;;;;;4956190;28;20243;-72
2021/09/19 05:06:25;;;;;;;13.60;7.53;;;14.40;99.90;;;;;;4957766;29;20212;-72
2021/09/19 05:08:54;;;;;;;12.80;7.27;;;14.30;99.90;;;;;;4957763;29;20218;-72
2021/09/19 05:11:20;;;;;;;12.30;7.43;;;14.20;99.90;;;;;;4957341;29;20569;-71
2021/09/19 05:13:47;;;;;;;14.30;7.70;;;14.20;99.90;;;;;;4957560;29;20230;-72
2021/09/19 05:16:14;;;;;;;10.87;6.43;;;14.20;99.90;;;;;;4957368;29;20231;-72
2021/09/19 05:18:41;;;;;;;11.10;7.17;;;14.30;99.90;;;;;;4957197;29;20208;-72
2021/09/19 05:21:07;;;;;;;11.80;6.90;;;14.30;99.90;;;;;;4957122;29;20232;-72
2021/09/19 05:23:34;;;;;;;9.97;6.63;;;14.40;99.90;;;;;;4957380;29;20208;-72
2021/09/19 05:26:03;;;;;;;14.17;7.83;;;14.40;99.90;;;;;;4957320;29;20204;-71
2021/09/19 05:28:30;;;;;;;12.67;7.43;;;14.40;99.90;;;;;;4957108;29;20212;-73
2021/09/19 05:30:56;;;;;;;10.93;6.70;;;14.50;99.90;;;;;;4957107;29;20610;-72
2021/09/19 05:33:23;;;;;;;12.07;7.07;;;14.40;99.90;;;;;;4957393;29;20214;-72
2021/09/19 05:35:50;;;;;;;13.57;7.67;;;14.40;99.90;;;;;;4957110;29;20211;-72
2021/09/19 05:38:17;;;;;;;13.27;7.43;;;14.40;99.90;;;;;;4957074;29;20447;-72
2021/09/19 05:40:44;;;;;;;11.97;6.70;;;14.40;99.90;;;;;;4956723;29;20604;-71
2021/09/19 05:43:13;;;;;;;12.07;7.00;;;14.40;99.90;;;;;;4956868;29;20208;-72
2021/09/19 05:45:40;;;;;;;10.90;7.37;;;14.60;99.90;;;;;;4956946;29;20204;-72
2021/09/19 05:48:07;;;;;;;11.60;6.97;;;14.70;99.90;;;;;;4957184;29;20208;-72
2021/09/19 05:50:34;;;;;;;13.37;7.20;;;14.70;99.90;;;;;;4956769;29;20246;-73
2021/09/19 05:53:00;;;;;;;12.63;7.50;;;14.70;99.90;;;;;;4956670;29;20612;-73
2021/09/19 05:55:27;;;;;;;12.23;6.77;;;14.80;99.90;;;;;;4956791;29;20572;-72
2021/09/19 05:57:54;;;;;;;12.83;7.63;;;14.90;99.90;;;;;;4956744;29;20204;-73
2021/09/19 06:00:22;;;;;;;11.67;7.13;;;14.90;99.90;;;;;;4955815;29;20216;-73
2021/09/19 06:02:49;;;;;;;13.93;7.23;;;15.00;99.90;;;;;;4956077;29;20235;-73
2021/09/19 06:05:16;;;;;;;12.57;7.83;;;15.00;99.90;;;;;;4956007;29;20216;-70
2021/09/19 06:07:43;;;;;;;13.53;7.57;;;15.00;99.90;;;;;;4956560;29;20208;-72
2021/09/19 06:10:10;;;;;;;12.03;7.07;;;15.00;99.90;;;;;;4956364;29;20717;-72
2021/09/19 06:12:37;;;;;;;12.23;7.20;;;15.10;99.90;;;;;;4955841;29;20238;-72
2021/09/19 06:15:06;;;;;;;13.10;6.83;;;15.10;99.90;;;;;;4955822;28;20216;-73
2021/09/19 06:17:34;;;;;;;15.73;7.40;;;15.10;99.90;;;;;;4955977;29;20215;-73
2021/09/19 06:20:01;;;;;;;11.63;6.53;;;15.20;99.90;;;;;;4956020;29;20215;-73
2021/09/19 06:22:29;;;;;;;11.23;7.23;;;15.20;99.90;;;;;;4955644;29;20228;-70
2021/09/19 06:24:56;;;;;;;14.83;7.00;;;15.30;99.90;;;;;;4955842;29;20208;-70
2021/09/19 06:27:23;;;;;;;11.30;6.57;;;15.40;99.90;;;;;;4955861;29;20216;-73
2021/09/19 06:29:50;;;;;;;12.17;7.37;;;15.50;99.90;;;;;;4955695;29;20585;-73
2021/09/19 06:32:16;;;;;;;11.07;6.80;;;15.50;99.90;;;;;;4955645;29;20232;-73
2021/09/19 06:34:45;;;;;;;11.90;6.60;;;15.70;99.90;;;;;;4955956;29;20214;-73
2021/09/19 06:37:12;;;;;;;11.67;7.07;;;15.70;99.90;;;;;;4956008;29;20222;-73
2021/09/19 06:39:38;;;;;;;12.30;7.07;;;15.70;99.90;;;;;;4955996;29;20214;-73
2021/09/19 06:42:05;;;;;;;11.70;6.97;;;15.70;99.90;;;;;;4955520;29;20231;-72
2021/09/19 06:44:32;;;;;;;11.33;6.67;;;15.80;99.90;;;;;;4956065;29;20208;-71
2021/09/19 06:46:59;;;;;;;10.77;6.93;;;15.80;99.90;;;;;;4956051;29;20216;-73
2021/09/19 06:49:26;;;;;;;11.03;6.87;;;15.90;99.90;;;;;;4955891;29;20208;-71
2021/09/19 06:51:55;;;;;;;12.97;6.50;;;16.00;99.90;;;;;;4955645;29;20251;-73
2021/09/19 06:54:21;;;;;;;11.17;7.40;;;16.00;99.90;;;;;;4955815;29;20214;-71
2021/09/19 06:56:49;;;;;;;11.60;6.43;;;15.70;99.90;;;;;;4956079;29;20211;-71
2021/09/19 06:59:16;;;;;;;13.47;6.73;;;15.90;99.90;;;;;;4955370;29;20660;-71
2021/09/19 07:01:43;;;;;;;12.00;6.70;;;16.00;99.90;;;;;;4955395;29;20232;-71
2021/09/19 07:04:10;;;;;;;10.20;6.40;;;16.10;99.90;;;;;;4955342;29;20607;-71
2021/09/19 07:06:37;;;;;;;10.60;6.57;;;16.20;99.90;;;;;;4955326;29;20208;-71
2021/09/19 07:09:05;;;;;;;12.20;7.07;;;16.30;99.90;;;;;;4955438;29;20216;-71
2021/09/19 07:11:33;;;;;;;11.63;6.77;;;16.40;99.90;;;;;;4955160;29;20710;-71
2021/09/19 07:14:00;;;;;;;10.37;6.83;;;16.50;99.90;;;;;;4955421;29;20572;-72
2021/09/19 07:16:27;;;;;;;11.10;7.30;;;16.50;99.90;;;;;;4955315;29;20212;-71
2021/09/19 07:18:54;;;;;;;11.93;7.17;;;16.30;99.90;;;;;;4955371;29;20214;-70
2021/09/19 07:21:22;;;;;;;12.23;7.10;;;16.00;99.90;;;;;;4955178;29;20232;-72
2021/09/19 07:23:49;;;;;;;13.13;6.57;;;15.90;99.90;;;;;;4955265;29;20529;-72
2021/09/19 07:26:17;;;;;;;10.73;6.60;;;15.90;99.90;;;;;;4955068;28;20214;-72
2021/09/19 07:28:45;;;;;;;11.07;6.97;;;16.00;99.90;;;;;;4956157;29;20298;-71
2021/09/19 07:31:12;;;;;;;14.53;7.27;;;16.30;99.90;;;;;;4955280;29;20727;-72
2021/09/19 07:33:39;;;;;;;12.77;7.57;;;16.40;99.90;;;;;;4955497;29;20242;-72
2021/09/19 07:36:08;;;;;;;13.20;7.20;;;16.60;99.90;;;;;;4954820;29;20570;-72
2021/09/19 07:38:35;;;;;;;11.50;7.00;;;16.70;99.90;;;;;;4955475;29;20216;-72
2021/09/19 07:41:02;;;;;;;12.43;6.80;;;16.60;99.90;;;;;;4955403;29;20232;-72
2021/09/19 07:43:31;;;;;;;10.97;7.00;;;16.60;99.90;;;;;;4955125;29;20686;-72
2021/09/19 07:45:58;;;;;;;9.53;6.43;;;16.60;99.90;;;;;;4954826;29;20296;-72
2021/09/19 07:48:25;;;;;;;12.13;6.63;;;16.90;99.90;;;;;;4954918;29;20215;-72
2021/09/19 07:50:53;;;;;;;11.50;6.77;;;17.20;99.90;;;;;;4954762;29;20683;-72
2021/09/19 07:53:20;;;;;;;9.67;6.00;;;17.60;99.90;;;;;;4955422;29;20208;-72
2021/09/19 07:55:47;;;;;;;12.33;6.60;;;17.60;99.90;;;;;;4955228;29;20212;-72
2021/09/19 07:58:14;;;;;;;11.70;6.53;;;17.50;99.90;;;;;;4955202;29;20208;-72
2021/09/19 08:00:42;;;;;;;11.00;7.17;;;17.60;99.90;;;;;;4955567;29;20590;-72
2021/09/19 08:03:09;;;;;;;12.93;6.83;;;17.50;99.90;;;;;;4955319;29;20321;-72
2021/09/19 08:05:36;;;;;;;12.43;6.97;;;17.80;99.90;;;;;;4955424;29;20216;-72
2021/09/19 08:08:02;;;;;;;12.90;6.63;;;18.00;99.90;;;;;;4954817;29;20685;-72
2021/09/19 08:10:29;;;;;;;10.73;6.57;;;18.10;99.90;;;;;;4954547;29;20228;-72
2021/09/19 08:12:56;;;;;;;10.63;6.60;;;17.60;99.90;;;;;;4954640;29;20689;-72
2021/09/19 08:15:23;;;;;;;8.00;5.80;;;17.50;99.90;;;;;;4954709;29;20639;-72
2021/09/19 08:17:52;;;;;;;10.43;6.27;;;17.50;99.90;;;;;;4954980;29;20207;-72
2021/09/19 08:20:19;;;;;;;9.23;6.10;;;17.60;99.90;;;;;;4954736;29;20591;-72
2021/09/19 08:22:46;;;;;;;10.67;6.20;;;18.00;99.90;;;;;;4954617;29;20239;-72
2021/09/19 08:25:15;;;;;;;10.30;5.83;;;18.50;99.90;;;;;;4954547;29;20212;-73
2021/09/19 08:27:43;;;;;;;9.80;6.37;;;19.00;99.90;;;;;;4954689;29;20340;-72
2021/09/19 08:30:12;;;;;;;9.83;5.43;;;18.80;99.90;;;;;;4954572;29;20208;-72
2021/09/19 08:32:39;;;;;;;8.30;5.20;;;18.80;99.90;;;;;;4954375;29;20235;-72
2021/09/19 08:35:09;;;;;;;8.77;5.25;;;18.80;99.90;;;;;;4954717;29;20222;-73
2021/09/19 08:37:36;;;;;;;8.25;5.50;;;19.30;99.90;;;;;;4956158;28;20663;-73
2021/09/19 08:40:05;;;;;;;7.32;4.88;;;19.60;99.90;;;;;;4958482;29;20574;-73
2021/09/19 08:42:33;;;;;;;7.30;4.68;;;19.90;99.90;;;;;;4958044;29;20227;-73
2021/09/19 08:45:00;;;;;;;7.72;5.05;;;19.90;99.90;;;;;;4958044;29;20311;-73
2021/09/19 08:47:30;;;;;;;7.53;4.88;;;19.80;99.90;;;;;;4957808;29;20200;-73
2021/09/19 08:49:57;;;;;;;8.95;4.93;;;19.50;99.90;;;;;;4958191;29;20216;-73
2021/09/19 08:52:26;;;;;;;6.80;4.32;;;19.50;99.90;;;;;;4953364;28;20244;-79
2021/09/19 08:54:53;;;;;;;8.50;5.07;;;19.40;99.90;;;;;;4955456;28;20208;-76
2021/09/19 08:57:20;;;;;;;6.60;4.22;;;19.50;99.90;;;;;;4952588;28;20208;-76
2021/09/19 08:59:49;;;;;;;8.88;4.85;;;19.80;99.90;;;;;;4956693;29;20204;-78
2021/09/19 09:02:17;;;;;;;6.20;4.32;;;19.90;99.90;;;;;;4956396;28;20303;-74
2021/09/19 09:04:45;;;;;;;9.07;4.53;;;20.30;99.90;;;;;;4956976;29;20220;-77
2021/09/19 09:07:13;;;;;;;7.10;4.50;;;20.70;99.90;;;;;;4947912;29;20575;-77
2021/09/19 09:09:53;;;;;;;5.22;3.83;;;21.20;99.90;;;;;;4949775;29;20219;-78
2021/09/19 09:12:20;;;;;;;6.45;3.85;;;21.40;99.90;;;;;;4937684;29;20599;-80
2021/09/19 09:14:51;;;;;;;6.78;3.88;;;21.20;99.90;;;;;;4948182;29;20199;-77
2021/09/19 09:17:19;;;;;;;5.68;3.42;;;20.60;99.90;;;;;;4956516;29;20207;-77
2021/09/19 09:19:47;;;;;;;5.97;3.53;;;20.50;99.90;;;;;;4956821;29;20570;-76
2021/09/19 09:22:16;;;;;;;6.22;3.75;;;20.60;99.90;;;;;;4955634;28;20232;-78
2021/09/19 09:24:45;;;;;;;5.90;3.55;;;20.70;99.90;;;;;;4956332;29;20215;-75
2021/09/19 09:27:20;;;;;;;6.18;3.83;;;20.80;99.90;;;;;;4955564;28;20211;-76
2021/09/19 09:30:09;;;;;;;4.07;3.30;;;20.80;99.90;;;;;;4955742;29;20233;-76
2021/09/19 09:32:57;;;;;;;4.63;3.40;;;20.90;99.90;;;;;;4952725;29;20250;-77
2021/09/19 09:35:25;;;;;;;6.10;3.47;;;21.00;99.90;;;;;;4956122;29;20212;-77
2021/09/19 09:37:52;;;;;;;5.70;3.33;;;20.90;99.90;;;;;;4955554;29;20212;-78
2021/09/19 09:40:27;;;;;;;4.78;3.30;;;20.90;99.90;;;;;;4956783;29;20212;-76
2021/09/19 09:43:08;;;;;;;5.45;3.63;;;20.70;99.90;;;;;;4955841;29;20677;-76
2021/09/19 09:45:36;;;;;;;4.97;3.20;;;20.70;99.90;;;;;;4955236;29;20222;-77
2021/09/19 09:48:05;;;;;;;5.13;3.13;;;20.80;99.90;;;;;;4955519;28;20307;-79
2021/09/19 09:50:32;;;;;;;5.55;3.53;;;21.00;99.90;;;;;;4955913;28;20204;-77
2021/09/19 09:53:12;;;;;;;4.78;3.10;;;21.10;99.90;;;;;;4957680;29;20212;-80
2021/09/19 09:55:44;;;;;;;4.57;2.63;;;21.20;99.90;;;;;;4956581;29;20212;-77
2021/09/19 09:58:12;;;;;;;7.13;3.20;;;21.30;99.90;;;;;;4955229;29;20672;-74
2021/09/19 10:00:41;;;;;;;4.63;2.67;;;21.30;99.90;;;;;;4956226;29;20216;-82
2021/09/19 10:03:09;;;;;;;4.88;3.03;;;21.10;99.90;;;;;;4956556;29;20287;-74
2021/09/19 10:05:36;;;;;;;3.90;2.90;;;21.00;99.90;;;;;;4956811;29;20302;-72
2021/09/19 10:08:04;;;;;;;3.75;2.75;;;21.20;99.90;;;;;;4955236;29;20228;-81
2021/09/19 10:10:36;;;;;;;4.90;3.17;;;21.20;99.90;;;;;;4956677;28;20736;-82
2021/09/19 10:13:04;;;;;;;4.38;3.03;;;21.40;99.90;;;;;;4956293;29;20208;-76
2021/09/19 10:15:32;;;;;;;3.25;2.30;;;21.50;99.90;;;;;;4955588;29;20246;-76
2021/09/19 10:17:59;;;;;;;3.80;2.55;;;21.70;99.90;;;;;;4958110;29;20638;-76
2021/09/19 10:20:29;;;;;;;5.13;2.50;;;21.60;99.90;;;;;;4955107;29;20667;-77
2021/09/19 10:23:01;;;;;;;4.88;2.65;;;21.60;99.90;;;;;;4955171;29;20212;-78
2021/09/19 10:25:50;;;;;;;5.25;2.33;;;21.90;99.90;;;;;;4955336;29;20667;-72
2021/09/19 10:28:26;;;;;;;3.60;2.47;;;22.20;99.90;;;;;;4946629;29;20215;-74
2021/09/19 10:31:18;;;;;;;4.28;2.50;;;22.20;99.90;;;;;;4954438;28;20235;-77
2021/09/19 10:33:48;;;;;;;3.97;2.47;;;22.00;99.90;;;;;;4954958;29;20294;-81
2021/09/19 10:36:28;;;;;;;3.85;2.65;;;22.10;99.90;;;;;;4954215;29;20683;-76
2021/09/19 10:39:19;;;;;;;4.30;2.35;;;22.30;99.90;;;;;;4955071;29;20306;-84
2021/09/19 10:42:05;;;;;;;3.70;2.20;;;22.20;99.90;;;;;;4954633;28;20238;-78
2021/09/19 10:44:59;;;;;;;3.40;2.15;;;22.20;99.90;;;;;;4953901;29;20219;-77
2021/09/19 10:47:35;;;;;;;3.92;2.50;;;22.30;99.90;;;;;;4954553;29;20208;-76
2021/09/19 10:50:13;;;;;;;3.92;2.35;;;22.10;99.90;;;;;;4954890;29;20210;-76
2021/09/19 10:52:41;;;;;;;3.30;2.30;;;22.10;99.90;;;;;;4955433;28;20246;-76
2021/09/19 10:55:19;;;;;;;3.70;2.30;;;22.00;99.90;;;;;;4955505;29;20212;-75
2021/09/19 10:57:54;;;;;;;3.42;2.50;;;22.10;99.90;;;;;;4955433;29;20254;-76
2021/09/19 11:00:23;;;;;;;4.80;2.47;;;22.40;99.90;;;;;;4955607;28;20207;-76
2021/09/19 11:03:08;;;;;;;3.75;2.28;;;22.30;99.90;;;;;;4955594;28;20240;-76
2021/09/19 11:05:38;;;;;;;3.15;2.20;;;22.20;99.90;;;;;;4955308;29;20219;-75
2021/09/19 11:08:14;;;;;;;3.30;1.90;;;22.40;99.90;;;;;;4955147;29;20207;-75
2021/09/19 11:11:22;;;;;;;2.67;1.95;;;22.60;99.90;;;;;;4955169;28;20208;-75
2021/09/19 11:13:56;;;;;;;2.92;2.35;;;22.70;99.90;;;;;;4954954;29;20208;-76
2021/09/19 11:16:38;;;;;;;6.47;2.17;;;23.00;99.90;;;;;;4955206;29;20207;-76
2021/09/19 11:19:09;;;;;;;3.60;2.38;;;23.00;99.90;;;;;;4954766;29;20204;-74
2021/09/19 11:21:47;;;;;;;3.28;2.10;;;23.00;99.90;;;;;;4955102;28;20235;-73
2021/09/19 11:24:16;;;;;;;2.88;2.00;;;23.10;99.90;;;;;;4955079;29;20238;-73
2021/09/19 11:26:45;;;;;;;2.97;2.20;;;23.10;99.90;;;;;;4954807;29;20204;-76
2021/09/19 11:29:14;;;;;;;3.10;2.35;;;23.00;99.90;;;;;;4955429;29;20215;-76
2021/09/19 11:31:44;;;;;;;8.23;3.58;;;23.40;99.90;;;;;;4955075;28;20326;-73
2021/09/19 11:34:13;;;;;;;7.57;3.53;;;23.80;99.90;;;;;;4955236;29;20211;-79
2021/09/19 11:36:45;;;;;;;4.53;2.53;;;24.00;99.90;;;;;;4954548;29;20211;-76
2021/09/19 11:39:12;;;;;;;3.88;2.28;;;24.30;99.90;;;;;;4955065;29;20215;-79
2021/09/19 11:41:41;;;;;;;3.17;2.20;;;24.20;99.90;;;;;;4954628;28;20259;-75
2021/09/19 11:44:11;;;;;;;2.97;2.17;;;24.30;99.90;;;;;;4954564;29;20222;-79
2021/09/19 11:46:44;;;;;;;4.78;2.13;;;24.40;99.90;;;;;;4954754;29;20204;-76
2021/09/19 11:49:10;;;;;;;2.70;1.98;;;23.90;99.90;;;;;;4954902;29;20266;-73
2021/09/19 11:51:40;;;;;;;5.30;2.35;;;23.60;99.90;;;;;;4954315;28;20710;-73
2021/09/19 11:54:07;;;;;;;6.07;2.42;;;23.50;99.90;;;;;;4955127;29;20263;-76
2021/09/19 11:56:36;;;;;;;3.53;2.30;;;23.70;99.90;;;;;;4954655;29;20208;-74
2021/09/19 11:59:04;;;;;;;3.38;2.10;;;23.60;99.90;;;;;;4954668;29;20295;-74
2021/09/19 12:01:31;;;;;;;2.17;1.80;;;23.70;99.90;;;;;;4954346;28;20236;-78
2021/09/19 12:04:07;;;;;;;2.90;2.10;;;23.80;99.90;;;;;;4954703;29;20590;-75
2021/09/19 12:06:34;;;;;;;2.67;2.10;;;23.70;99.90;;;;;;4954509;29;20219;-77
2021/09/19 12:09:02;;;;;;;4.90;2.25;;;23.80;99.90;;;;;;4954936;29;20255;-72
2021/09/19 12:11:40;;;;;;;3.03;1.98;;;23.80;99.90;;;;;;4954201;28;20235;-77
2021/09/19 12:14:13;;;;;;;3.17;1.92;;;23.70;99.90;;;;;;4958722;29;20211;-78
2021/09/19 12:16:41;;;;;;;5.20;2.55;;;23.50;99.90;;;;;;4958588;29;20211;-85
2021/09/19 12:19:20;;;;;;;2.85;2.13;;;23.50;99.90;;;;;;4958473;29;20214;-79
2021/09/19 12:21:59;;;;;;;3.30;2.22;;;23.50;99.90;;;;;;4957640;28;20761;-77
2021/09/19 12:24:28;;;;;;;3.38;2.25;;;23.30;99.90;;;;;;4957996;29;20543;-79
2021/09/19 12:27:10;;;;;;;4.28;2.53;;;23.50;99.90;;;;;;4958066;29;20207;-80
2021/09/19 12:29:38;;;;;;;4.13;2.30;;;23.50;99.90;;;;;;4957934;29;20603;-80
2021/09/19 12:32:06;;;;;;;3.05;2.03;;;23.00;99.90;;;;;;4957626;28;20240;-80
2021/09/19 12:34:35;;;;;;;2.72;1.98;;;23.20;99.90;;;;;;4953612;29;20212;-83
2021/09/19 12:37:02;;;;;;;3.75;2.72;;;23.30;99.90;;;;;;4956868;29;20290;-81
2021/09/19 12:39:32;;;;;;;3.28;2.42;;;23.30;99.90;;;;;;4955936;29;20214;-78
2021/09/19 12:42:02;;;;;;;4.00;2.30;;;23.00;99.90;;;;;;4956051;28;20242;-79
2021/09/19 12:44:32;;;;;;;2.95;1.80;;;23.20;99.90;;;;;;4956289;29;20671;-79
2021/09/19 12:47:02;;;;;;;3.38;2.13;;;23.30;99.90;;;;;;4958217;29;20304;-85
2021/09/19 12:49:30;;;;;;;3.78;2.42;;;23.20;99.90;;;;;;4955587;29;20244;-81